createdAt,value
2023-05-13T00:00:28.655Z,53.30
2023-05-13T00:01:29.015Z,52.28
2023-05-13T00:02:29.215Z,52.38
2023-05-13T00:03:29.607Z,53.50
2023-05-13T00:04:29.809Z,55.12
2023-05-13T00:05:30.118Z,55.22
2023-05-13T00:06:30.600Z,54.41
2023-05-13T00:07:30.663Z,53.50
2023-05-13T00:08:30.984Z,53.80
2023-05-13T00:09:31.284Z,53.09
2023-05-13T00:10:31.601Z,52.69
2023-05-13T00:11:31.910Z,52.48
2023-05-13T00:12:32.260Z,52.08
2023-05-13T00:13:32.566Z,51.98
2023-05-13T00:14:32.880Z,52.18
2023-05-13T00:15:33.187Z,51.98
2023-05-13T00:16:33.549Z,51.98
2023-05-13T00:17:33.834Z,51.87
2023-05-13T00:18:34.174Z,51.98
2023-05-13T00:19:34.476Z,51.87
2023-05-13T00:20:34.813Z,51.77
2023-05-13T00:21:35.122Z,51.67
2023-05-13T00:22:35.439Z,52.58
2023-05-13T00:23:35.759Z,51.98
2023-05-13T00:24:36.083Z,52.08
2023-05-13T00:25:36.396Z,51.67
2023-05-13T00:26:36.718Z,51.37
2023-05-13T00:27:37.088Z,51.34
2023-05-13T00:28:37.287Z,51.34
2023-05-13T00:29:37.614Z,51.44
2023-05-13T00:30:37.908Z,51.44
2023-05-13T00:31:38.251Z,51.44
2023-05-13T00:32:38.685Z,51.85
2023-05-13T00:33:38.848Z,51.77
2023-05-13T00:34:39.221Z,51.75
2023-05-13T00:35:39.505Z,51.65
2023-05-13T00:36:39.838Z,51.98
2023-05-13T00:37:40.161Z,52.89
2023-05-13T00:38:40.461Z,52.99
2023-05-13T00:39:40.778Z,53.39
2023-05-13T00:40:41.107Z,53.80
2023-05-13T00:41:41.462Z,52.79
2023-05-13T00:42:41.747Z,52.18
2023-05-13T00:43:42.090Z,52.48
2023-05-13T00:44:42.408Z,52.48
2023-05-13T00:45:42.844Z,51.87
2023-05-13T00:46:43.025Z,53.39
2023-05-13T00:47:43.365Z,54.41
2023-05-13T00:48:43.660Z,53.30
2023-05-13T00:49:44.011Z,52.99
2023-05-13T00:50:44.321Z,53.70
2023-05-13T00:51:44.643Z,53.70
2023-05-13T00:52:44.931Z,53.60
2023-05-13T00:53:45.249Z,53.70
2023-05-13T00:54:45.578Z,53.60
2023-05-13T00:55:45.933Z,54.72
2023-05-13T00:56:46.223Z,55.53
2023-05-13T00:57:46.542Z,56.74
2023-05-13T00:58:46.854Z,57.38
2023-05-13T00:59:47.192Z,57.68
2023-05-13T01:00:47.526Z,59.01
2023-05-13T01:01:47.813Z,59.62
2023-05-13T01:02:48.175Z,60.13
2023-05-13T01:03:48.459Z,60.63
2023-05-13T01:04:48.857Z,60.53
2023-05-13T01:05:49.054Z,60.33
2023-05-13T01:06:49.351Z,60.43
2023-05-13T01:07:49.643Z,60.22
2023-05-13T01:08:49.977Z,60.33
2023-05-13T01:09:50.317Z,60.02
2023-05-13T01:10:50.618Z,60.22
2023-05-13T01:11:50.954Z,60.22
2023-05-13T01:12:51.222Z,60.63
2023-05-13T01:13:51.604Z,60.63
2023-05-13T01:14:51.916Z,61.04
2023-05-13T01:15:52.251Z,61.47
2023-05-13T01:16:52.632Z,61.68
2023-05-13T01:17:52.909Z,61.27
2023-05-13T01:18:53.230Z,61.17
2023-05-13T01:19:53.488Z,61.57
2023-05-13T01:20:53.785Z,61.47
2023-05-13T01:21:54.140Z,61.37
2023-05-13T01:22:54.443Z,61.68
2023-05-13T01:23:54.811Z,61.78
2023-05-13T01:24:55.081Z,61.98
2023-05-13T01:25:55.440Z,62.41
2023-05-13T01:26:55.740Z,62.32
2023-05-13T01:27:56.048Z,62.62
2023-05-13T01:28:56.356Z,63.13
2023-05-13T01:29:56.658Z,63.54
2023-05-13T01:30:57.033Z,62.72
2023-05-13T01:31:57.270Z,62.82
2023-05-13T01:32:57.501Z,62.93
2023-05-13T01:33:57.819Z,62.62
2023-05-13T01:34:58.103Z,63.02
2023-05-13T01:35:58.414Z,63.43
2023-05-13T01:36:58.739Z,63.16
2023-05-13T01:37:59.048Z,62.55
2023-05-13T01:38:59.348Z,63.67
2023-05-13T01:39:59.686Z,64.38
2023-05-13T01:41:00.015Z,64.18
2023-05-13T01:42:00.347Z,63.16
2023-05-13T01:43:00.667Z,61.94
2023-05-13T01:44:00.902Z,61.74
2023-05-13T01:45:01.180Z,61.63
2023-05-13T01:46:01.534Z,58.38
2023-05-13T01:47:01.777Z,59.70
2023-05-13T01:48:02.138Z,60.14
2023-05-13T01:49:02.372Z,61.43
2023-05-13T01:50:02.714Z,62.88
2023-05-13T01:51:03.089Z,62.07
2023-05-13T01:52:03.256Z,62.88
2023-05-13T01:53:03.574Z,63.19
2023-05-13T01:54:03.946Z,63.19
2023-05-13T01:55:04.138Z,63.80
2023-05-13T01:56:04.451Z,64.51
2023-05-13T01:57:04.815Z,64.61
2023-05-13T01:58:05.124Z,64.11
2023-05-13T01:59:05.441Z,63.80
2023-05-13T02:00:05.771Z,62.48
2023-05-13T02:01:06.107Z,63.29
2023-05-13T02:02:06.470Z,63.90
2023-05-13T02:03:06.766Z,63.80
2023-05-13T02:04:07.029Z,64.51
2023-05-13T02:05:07.325Z,64.72
2023-05-13T02:06:07.652Z,64.41
2023-05-13T02:07:07.949Z,64.44
2023-05-13T02:08:08.267Z,64.34
2023-05-13T02:09:08.617Z,64.44
2023-05-13T02:10:08.872Z,64.64
2023-05-13T02:11:09.062Z,64.54
2023-05-13T02:12:09.366Z,65.05
2023-05-13T02:13:09.714Z,65.56
2023-05-13T02:14:10.039Z,65.46
2023-05-13T02:15:10.335Z,65.46
2023-05-13T02:16:10.676Z,65.77
2023-05-13T02:17:10.909Z,66.07
2023-05-13T02:18:11.219Z,66.41
2023-05-13T02:19:11.626Z,66.41
2023-05-13T02:20:11.869Z,66.71
2023-05-13T02:21:12.184Z,67.02
2023-05-13T02:22:12.502Z,66.91
2023-05-13T02:23:12.829Z,66.91
2023-05-13T02:24:13.126Z,66.41
2023-05-13T02:25:13.450Z,66.00
2023-05-13T02:26:13.768Z,66.00
2023-05-13T02:27:14.121Z,66.10
2023-05-13T02:28:14.472Z,65.80
2023-05-13T02:29:14.756Z,66.00
2023-05-13T02:30:15.076Z,66.00
2023-05-13T02:31:15.393Z,65.92
2023-05-13T02:32:15.756Z,66.13
2023-05-13T02:33:16.088Z,66.44
2023-05-13T02:34:16.284Z,66.64
2023-05-13T02:35:16.600Z,66.94
2023-05-13T02:36:16.896Z,67.55
2023-05-13T02:37:17.293Z,67.35
2023-05-13T02:38:17.572Z,67.25
2023-05-13T02:39:17.915Z,67.05
2023-05-13T02:40:18.246Z,67.25
2023-05-13T02:41:18.568Z,67.35
2023-05-13T02:42:18.875Z,67.55
2023-05-13T02:43:19.200Z,67.86
2023-05-13T02:44:19.528Z,67.76
2023-05-13T02:45:19.833Z,67.46
2023-05-13T02:46:20.233Z,66.94
2023-05-13T02:47:20.543Z,66.85
2023-05-13T02:48:20.835Z,67.35
2023-05-13T02:49:21.156Z,67.46
2023-05-13T02:50:21.641Z,67.55
2023-05-13T02:51:21.806Z,67.59
2023-05-13T02:52:21.992Z,67.79
2023-05-13T02:53:22.324Z,67.99
2023-05-13T02:54:22.668Z,68.20
2023-05-13T02:55:23.068Z,68.10
2023-05-13T02:56:23.253Z,68.20
2023-05-13T02:57:23.576Z,68.30
2023-05-13T02:58:23.899Z,68.30
2023-05-13T02:59:24.216Z,68.51
2023-05-13T03:00:24.593Z,68.71
2023-05-13T03:01:24.851Z,68.61
2023-05-13T03:02:25.140Z,68.91
2023-05-13T03:03:25.612Z,68.91
2023-05-13T03:04:25.590Z,68.71
2023-05-13T03:05:27.235Z,69.02
2023-05-13T03:06:26.327Z,69.22
2023-05-13T03:07:26.540Z,69.42
2023-05-13T03:08:26.751Z,69.73
2023-05-13T03:09:27.130Z,70.04
2023-05-13T03:10:27.361Z,70.44
2023-05-13T03:11:27.747Z,70.98
2023-05-13T03:12:27.934Z,70.89
2023-05-13T03:13:28.194Z,70.68
2023-05-13T03:14:28.561Z,71.09
2023-05-13T03:15:28.821Z,71.50
2023-05-13T03:16:29.111Z,71.50
2023-05-13T03:17:29.386Z,70.98
2023-05-13T03:18:29.710Z,70.89
2023-05-13T03:19:30.085Z,70.57
2023-05-13T03:20:30.293Z,70.68
2023-05-13T03:21:30.529Z,70.48
2023-05-13T03:22:30.809Z,70.27
2023-05-13T03:23:31.025Z,70.07
2023-05-13T03:24:31.238Z,69.86
2023-05-13T03:25:31.592Z,69.96
2023-05-13T03:26:31.794Z,69.96
2023-05-13T03:27:32.173Z,69.56
2023-05-13T03:28:32.385Z,69.66
2023-05-13T03:29:32.760Z,69.66
2023-05-13T03:30:32.966Z,68.33
2023-05-13T03:31:33.342Z,65.99
2023-05-13T03:32:33.603Z,64.56
2023-05-13T03:33:33.814Z,65.28
2023-05-13T03:34:34.054Z,66.19
2023-05-13T03:35:34.283Z,67.01
2023-05-13T03:36:34.503Z,65.89
2023-05-13T03:37:34.869Z,65.89
2023-05-13T03:38:35.085Z,65.99
2023-05-13T03:39:35.425Z,65.78
2023-05-13T03:40:35.748Z,66.70
2023-05-13T03:41:36.114Z,66.50
2023-05-13T03:42:36.345Z,65.75
2023-05-13T03:43:36.693Z,63.71
2023-05-13T03:44:36.908Z,63.10
2023-05-13T03:45:37.273Z,62.59
2023-05-13T03:46:37.532Z,62.80
2023-05-13T03:47:37.793Z,63.00
2023-05-13T03:48:37.987Z,63.10
2023-05-13T03:49:38.229Z,63.20
2023-05-13T03:50:38.469Z,63.89
2023-05-13T03:51:38.826Z,64.20
2023-05-13T03:52:39.093Z,63.38
2023-05-13T03:53:39.323Z,64.40
2023-05-13T03:54:39.608Z,65.01
2023-05-13T03:55:39.834Z,65.52
2023-05-13T03:56:40.083Z,65.83
2023-05-13T03:57:40.342Z,64.78
2023-05-13T03:58:40.573Z,64.87
2023-05-13T03:59:40.841Z,65.19
2023-05-13T04:00:41.053Z,65.19
2023-05-13T04:01:41.507Z,62.54
2023-05-13T04:02:41.879Z,61.31
2023-05-13T04:03:41.903Z,60.57
2023-05-13T04:04:42.301Z,60.16
2023-05-13T04:05:42.513Z,60.16
2023-05-13T04:06:42.752Z,60.16
2023-05-13T04:07:43.076Z,60.57
2023-05-13T04:08:43.294Z,60.06
2023-05-13T04:09:43.519Z,59.86
2023-05-13T04:10:43.766Z,60.77
2023-05-13T04:11:44.000Z,59.75
2023-05-13T04:12:44.369Z,60.47
2023-05-13T04:13:44.607Z,60.24
2023-05-13T04:14:44.840Z,59.73
2023-05-13T04:15:45.100Z,59.63
2023-05-13T04:16:45.392Z,59.01
2023-05-13T04:17:45.658Z,58.40
2023-05-13T04:18:45.854Z,58.30
2023-05-13T04:19:46.096Z,58.92
2023-05-13T04:22:02.875Z,58.38
2023-05-13T04:23:06.840Z,58.58
2023-05-13T04:24:03.551Z,57.67
2023-05-13T04:25:04.863Z,57.16
2023-05-13T04:26:04.087Z,56.55
2023-05-13T04:27:04.362Z,56.62
2023-05-13T04:28:04.575Z,56.93
2023-05-13T04:29:04.910Z,57.54
2023-05-13T04:30:05.183Z,57.64
2023-05-13T04:31:05.462Z,57.92
2023-05-13T04:32:05.820Z,57.00
2023-05-13T04:33:06.666Z,56.49
2023-05-13T04:34:06.865Z,57.21
2023-05-13T04:35:06.546Z,57.21
2023-05-13T04:36:06.779Z,56.90
2023-05-13T04:37:07.064Z,56.90
2023-05-13T04:38:07.409Z,57.21
2023-05-13T04:39:07.544Z,56.80
2023-05-13T04:40:08.313Z,56.90
2023-05-13T04:41:08.341Z,56.80
2023-05-13T04:42:08.753Z,56.70
2023-05-13T04:43:09.006Z,56.39
2023-05-13T04:44:09.035Z,56.60
2023-05-13T04:45:09.574Z,56.49
2023-05-13T04:46:11.077Z,56.49
2023-05-13T04:47:10.691Z,57.00
2023-05-13T04:48:11.233Z,57.21
2023-05-13T04:49:11.661Z,57.21
2023-05-13T04:50:10.866Z,57.13
2023-05-13T04:51:12.347Z,56.82
2023-05-13T04:52:11.602Z,57.34
2023-05-13T04:53:11.735Z,57.23
2023-05-13T04:54:11.947Z,57.84
2023-05-13T04:55:12.301Z,57.00
2023-05-13T04:56:12.541Z,56.98
2023-05-13T04:57:12.801Z,54.59
2023-05-13T04:58:13.144Z,52.99
2023-05-13T04:59:13.385Z,51.50
2023-05-13T05:00:13.659Z,51.05
2023-05-13T05:01:14.020Z,49.16
2023-05-13T05:02:14.299Z,48.13
2023-05-13T05:03:14.593Z,47.67
2023-05-13T05:04:15.050Z,47.75
2023-05-13T05:05:17.495Z,46.22
2023-05-13T05:06:15.409Z,45.72
2023-05-13T05:07:15.704Z,45.67
2023-05-13T05:08:15.983Z,44.97
2023-05-13T05:09:16.674Z,45.25
2023-05-13T05:10:16.509Z,45.05
2023-05-13T05:11:16.949Z,44.32
2023-05-13T05:12:17.019Z,44.53
2023-05-13T05:13:17.309Z,44.60
2023-05-13T05:14:17.566Z,44.79
2023-05-13T05:15:18.063Z,44.89
2023-05-13T05:16:18.378Z,45.17
2023-05-13T05:17:18.591Z,44.76
2023-05-13T05:18:18.767Z,44.59
2023-05-13T05:19:19.127Z,44.99
2023-05-13T05:20:19.575Z,44.89
2023-05-13T05:21:20.108Z,45.09
2023-05-13T05:22:20.082Z,45.39
2023-05-13T05:23:20.236Z,45.06
2023-05-13T05:24:20.546Z,44.14
2023-05-13T05:25:20.901Z,43.82
2023-05-13T05:26:21.064Z,42.72
2023-05-13T05:27:21.320Z,42.91
2023-05-13T05:28:21.695Z,42.72
2023-05-13T05:29:21.880Z,42.72
2023-05-13T05:30:22.429Z,42.21
2023-05-13T05:31:22.658Z,42.30
2023-05-13T05:32:22.810Z,42.68
2023-05-13T05:33:23.263Z,41.25
2023-05-13T05:34:23.428Z,40.93
2023-05-13T05:35:23.820Z,40.33
2023-05-13T05:36:24.021Z,40.43
2023-05-13T05:37:24.220Z,40.35
2023-05-13T05:38:24.737Z,40.53
2023-05-13T05:39:24.950Z,40.93
2023-05-13T05:40:25.392Z,40.61
2023-05-13T05:41:25.398Z,39.51
2023-05-13T05:42:25.621Z,39.50
2023-05-13T05:43:26.040Z,39.50
2023-05-13T05:44:26.179Z,39.50
2023-05-13T05:45:26.541Z,39.58
2023-05-13T05:46:26.977Z,39.28
2023-05-13T05:47:27.676Z,39.18
2023-05-13T05:48:27.492Z,39.56
2023-05-13T05:49:27.787Z,39.06
2023-05-13T05:50:28.219Z,39.14
2023-05-13T05:51:28.384Z,38.74
2023-05-13T05:52:28.670Z,38.66
2023-05-13T05:53:29.082Z,39.18
2023-05-13T05:54:29.352Z,39.18
2023-05-13T05:55:29.677Z,38.96
2023-05-13T05:56:29.820Z,39.18
2023-05-13T05:57:30.013Z,38.98
2023-05-13T05:58:30.296Z,38.96
2023-05-13T05:59:30.646Z,38.14
2023-05-13T06:00:31.295Z,38.12
2023-05-13T06:01:31.201Z,37.81
2023-05-13T06:02:31.660Z,37.68
2023-05-13T06:03:32.322Z,36.39
2023-05-13T06:04:32.535Z,36.69
2023-05-13T06:05:32.772Z,36.67
2023-05-13T06:06:32.677Z,37.08
2023-05-13T06:07:33.130Z,36.59
2023-05-13T06:08:55.512Z,36.89
2023-05-13T06:09:33.599Z,36.69
2023-05-13T06:10:33.892Z,35.99
2023-05-13T06:11:34.258Z,36.89
2023-05-13T06:12:34.472Z,36.47
2023-05-13T06:13:34.839Z,34.99
2023-05-13T06:14:34.990Z,35.28
2023-05-13T06:15:35.141Z,35.28
2023-05-13T06:16:35.559Z,35.47
2023-05-13T06:17:35.830Z,35.58
2023-05-13T06:18:36.193Z,36.05
2023-05-13T06:19:36.376Z,35.16
2023-05-13T06:20:36.508Z,35.36
2023-05-13T06:21:36.872Z,35.68
2023-05-13T06:22:37.095Z,35.77
2023-05-13T06:23:37.277Z,35.88
2023-05-13T06:24:37.565Z,35.68
2023-05-13T06:25:37.870Z,36.49
2023-05-13T06:26:38.291Z,36.18
2023-05-13T06:27:38.467Z,36.18
2023-05-13T06:28:38.758Z,36.07
2023-05-13T06:29:39.021Z,35.68
2023-05-13T06:30:39.397Z,36.18
2023-05-13T06:31:39.563Z,36.57
2023-05-13T06:32:47.298Z,35.47
2023-05-13T06:33:41.331Z,35.47
2023-05-13T06:34:40.588Z,35.97
2023-05-13T06:35:40.838Z,35.79
2023-05-13T06:36:41.027Z,36.13
2023-05-13T06:37:41.267Z,36.82
2023-05-13T06:38:41.513Z,36.72
2023-05-13T06:39:41.863Z,36.93
2023-05-13T06:40:42.215Z,36.54
2023-05-13T06:41:42.476Z,37.48
2023-05-13T06:42:42.718Z,38.09
2023-05-13T06:43:43.043Z,38.70
2023-05-13T06:44:43.510Z,39.09
2023-05-13T06:45:43.674Z,38.40
2023-05-13T06:46:43.989Z,38.63
2023-05-13T06:47:44.325Z,39.75
2023-05-13T06:48:44.593Z,40.67
2023-05-13T06:49:45.008Z,41.09
2023-05-13T06:50:45.139Z,41.21
2023-05-13T06:51:45.468Z,41.65
2023-05-13T06:52:45.782Z,42.69
2023-05-13T06:53:46.085Z,43.44
2023-05-13T06:54:46.581Z,44.27
2023-05-13T06:55:46.751Z,44.79
2023-05-13T06:56:47.057Z,44.89
2023-05-13T06:57:47.370Z,43.60
2023-05-13T06:58:47.516Z,43.30
2023-05-13T06:59:47.631Z,43.30
2023-05-13T07:00:47.941Z,44.01
2023-05-13T07:01:48.274Z,44.71
2023-05-13T07:02:48.609Z,44.92
2023-05-13T07:03:49.057Z,45.32
2023-05-13T07:04:49.210Z,44.43
2023-05-13T07:05:49.533Z,44.73
2023-05-13T07:06:49.766Z,44.83
2023-05-13T07:07:50.015Z,44.83
2023-05-13T07:08:50.362Z,45.24
2023-05-13T07:09:50.547Z,44.63
2023-05-13T07:10:50.770Z,44.83
2023-05-13T07:11:51.022Z,44.13
2023-05-13T07:12:52.094Z,44.13
2023-05-13T07:13:51.540Z,44.11
2023-05-13T07:14:51.801Z,44.92
2023-05-13T07:15:52.043Z,44.92
2023-05-13T07:16:52.422Z,45.01
2023-05-13T07:17:52.578Z,44.01
2023-05-13T07:18:52.948Z,44.21
2023-05-13T07:19:53.169Z,44.21
2023-05-13T07:20:53.492Z,44.81
2023-05-13T07:21:54.002Z,43.20
2023-05-13T07:22:54.261Z,43.91
2023-05-13T07:23:54.367Z,44.61
2023-05-13T07:24:54.729Z,43.51
2023-05-13T07:25:55.203Z,43.00
2023-05-13T07:26:55.303Z,43.51
2023-05-13T07:27:55.549Z,42.50
2023-05-13T07:28:55.795Z,43.00
2023-05-13T07:29:56.051Z,43.51
2023-05-13T07:30:56.433Z,42.40
2023-05-13T07:31:56.669Z,42.40
2023-05-13T07:32:57.013Z,43.00
2023-05-13T07:35:42.806Z,43.10
2023-05-13T07:36:15.064Z,43.51
2023-05-13T07:41:07.695Z,42.78
2023-05-13T07:42:08.092Z,42.18
2023-05-13T07:43:07.844Z,41.97
2023-05-13T07:44:08.851Z,42.18
2023-05-13T07:45:08.475Z,41.77
2023-05-13T07:46:09.293Z,41.57
2023-05-13T07:47:09.381Z,42.68
2023-05-13T07:48:09.818Z,43.18
2023-05-13T07:49:09.305Z,43.88
2023-05-13T07:50:09.518Z,42.88
2023-05-13T07:51:10.868Z,41.87
2023-05-13T07:52:10.330Z,42.38
2023-05-13T07:53:10.932Z,42.07
2023-05-13T07:54:12.452Z,42.88
2023-05-13T07:55:11.250Z,42.27
2023-05-13T07:56:12.184Z,42.98
2023-05-13T07:57:12.513Z,42.78
2023-05-13T07:58:12.084Z,41.77
2023-05-13T07:59:12.841Z,42.55
2023-05-13T08:00:12.597Z,41.95
2023-05-13T08:01:12.965Z,42.15
2023-05-13T08:02:13.168Z,42.86
2023-05-13T08:03:13.722Z,41.95
2023-05-13T08:04:13.923Z,41.95
2023-05-13T08:05:14.116Z,41.85
2023-05-13T08:06:14.180Z,41.45
2023-05-13T08:07:14.443Z,41.55
2023-05-13T08:08:14.751Z,41.85
2023-05-13T08:09:15.041Z,42.66
2023-05-13T08:10:15.505Z,40.95
2023-05-13T08:11:15.771Z,41.55
2023-05-13T08:12:15.965Z,42.25
2023-05-13T08:13:16.397Z,42.96
2023-05-13T08:14:16.759Z,42.55
2023-05-13T08:15:16.678Z,42.15
2023-05-13T08:16:16.977Z,41.45
2023-05-13T08:17:17.232Z,41.95
2023-05-13T08:18:17.606Z,41.75
2023-05-13T08:19:17.944Z,42.94
2023-05-13T08:20:18.104Z,42.44
2023-05-13T08:21:18.448Z,41.63
2023-05-13T08:22:18.707Z,40.02
2023-05-13T08:23:18.914Z,39.72
2023-05-13T08:24:19.150Z,40.02
2023-05-13T08:25:19.645Z,39.22
2023-05-13T08:26:19.952Z,39.62
2023-05-13T08:27:19.988Z,39.72
2023-05-13T08:28:20.196Z,40.42
2023-05-13T08:29:20.569Z,38.71
2023-05-13T08:30:20.876Z,39.32
2023-05-13T08:31:21.124Z,39.92
2023-05-13T08:32:21.511Z,41.03
2023-05-13T08:33:21.804Z,40.22
2023-05-13T08:34:21.963Z,40.20
2023-05-13T08:35:22.480Z,39.40
2023-05-13T08:36:22.486Z,39.90
2023-05-13T08:37:22.929Z,39.30
2023-05-13T08:38:23.066Z,39.20
2023-05-13T08:39:23.430Z,38.90
2023-05-13T08:40:23.603Z,40.20
2023-05-13T08:41:23.947Z,39.18
2023-05-13T08:42:24.113Z,38.38
2023-05-13T08:43:24.456Z,38.07
2023-05-13T08:44:24.668Z,38.48
2023-05-13T08:45:24.919Z,38.28
2023-05-13T08:46:25.257Z,36.87
2023-05-13T08:47:25.554Z,37.77
2023-05-13T08:48:25.798Z,38.07
2023-05-13T08:49:26.120Z,37.17
2023-05-13T08:50:26.377Z,37.37
2023-05-13T08:51:26.653Z,36.97
2023-05-13T08:52:27.076Z,37.77
2023-05-13T08:53:27.196Z,37.77
2023-05-13T08:54:27.536Z,36.87
2023-05-13T08:55:27.869Z,37.67
2023-05-13T08:56:28.075Z,36.16
2023-05-13T08:57:28.446Z,36.57
2023-05-13T08:58:28.686Z,36.27
2023-05-13T08:59:28.899Z,37.27
2023-05-13T09:00:29.274Z,38.06
2023-05-13T09:01:29.503Z,36.85
2023-05-13T09:02:29.734Z,36.15
2023-05-13T09:03:30.083Z,35.64
2023-05-13T09:04:30.254Z,36.27
2023-05-13T09:05:30.620Z,36.45
2023-05-13T09:06:30.857Z,36.15
2023-05-13T09:07:31.021Z,36.55
2023-05-13T09:08:31.276Z,36.15
2023-05-13T09:09:31.582Z,37.15
2023-05-13T09:10:31.838Z,36.75
2023-05-13T09:11:32.136Z,35.95
2023-05-13T09:12:32.364Z,36.55
2023-05-13T09:13:32.660Z,36.05
2023-05-13T09:14:32.946Z,36.45
2023-05-13T09:15:33.345Z,35.43
2023-05-13T09:16:33.594Z,36.33
2023-05-13T09:17:33.797Z,35.33
2023-05-13T09:18:34.369Z,35.83
2023-05-13T09:19:34.422Z,35.03
2023-05-13T09:20:34.685Z,34.63
2023-05-13T09:21:34.830Z,34.73
2023-05-13T09:22:35.105Z,34.73
2023-05-13T09:23:35.462Z,34.83
2023-05-13T09:24:35.764Z,34.54
2023-05-13T09:25:36.088Z,35.03
2023-05-13T09:26:36.389Z,35.55
2023-05-13T09:27:36.753Z,35.13
2023-05-13T09:28:36.989Z,34.92
2023-05-13T09:29:37.271Z,35.23
2023-05-13T09:30:37.608Z,35.23
2023-05-13T09:31:37.973Z,35.53
2023-05-13T09:32:38.242Z,35.73
2023-05-13T09:33:38.573Z,35.53
2023-05-13T09:34:38.830Z,36.33
2023-05-13T09:35:39.144Z,35.43
2023-05-13T09:36:39.537Z,35.03
2023-05-13T09:37:39.782Z,34.92
2023-05-13T09:38:40.102Z,35.93
2023-05-13T09:39:40.498Z,34.73
2023-05-13T09:40:40.666Z,35.23
2023-05-13T09:41:41.072Z,35.63
2023-05-13T09:42:41.256Z,35.73
2023-05-13T09:43:41.482Z,35.33
2023-05-13T09:44:41.628Z,35.53
2023-05-13T09:45:41.907Z,35.53
2023-05-13T09:46:42.300Z,34.73
2023-05-13T09:47:42.444Z,35.43
2023-05-13T09:48:42.748Z,35.23
2023-05-13T09:49:43.004Z,35.23
2023-05-13T09:50:43.373Z,35.33
2023-05-13T09:51:43.602Z,36.03
2023-05-13T09:52:43.909Z,34.71
2023-05-13T09:53:44.202Z,35.61
2023-05-13T09:54:44.509Z,34.11
2023-05-13T09:55:44.792Z,35.41
2023-05-13T09:56:45.101Z,35.71
2023-05-13T09:57:45.425Z,36.11
2023-05-13T09:58:45.667Z,36.11
2023-05-13T09:59:45.859Z,34.41
2023-05-13T10:00:46.442Z,35.21
2023-05-13T10:01:46.547Z,35.11
2023-05-13T10:02:46.721Z,34.71
2023-05-13T10:03:46.911Z,34.81
2023-05-13T10:04:47.358Z,34.81
2023-05-13T10:05:47.619Z,35.51
2023-05-13T10:06:47.852Z,33.71
2023-05-13T10:07:47.937Z,33.91
2023-05-13T10:08:48.229Z,34.91
2023-05-13T10:09:48.562Z,33.72
2023-05-13T10:10:48.836Z,33.62
2023-05-13T10:11:49.159Z,34.63
2023-05-13T10:12:49.455Z,33.42
2023-05-13T10:13:49.742Z,33.62
2023-05-13T10:14:50.036Z,33.40
2023-05-13T10:15:50.424Z,33.02
2023-05-13T10:16:50.795Z,34.12
2023-05-13T10:17:50.956Z,34.61
2023-05-13T10:18:51.154Z,35.71
2023-05-13T10:19:51.520Z,34.11
2023-05-13T10:20:51.782Z,33.22
2023-05-13T10:21:59.509Z,33.42
2023-05-13T10:22:52.296Z,33.72
2023-05-13T10:23:52.540Z,34.12
2023-05-13T10:24:52.785Z,34.33
2023-05-13T10:25:53.098Z,33.91
2023-05-13T10:26:53.436Z,33.71
2023-05-13T10:27:53.708Z,34.91
2023-05-13T10:28:53.983Z,33.61
2023-05-13T10:29:54.248Z,33.40
2023-05-13T10:30:54.764Z,33.59
2023-05-13T10:31:54.793Z,33.59
2023-05-13T10:32:55.122Z,33.99
2023-05-13T10:33:55.263Z,34.48
2023-05-13T10:34:55.545Z,33.28
2023-05-13T10:35:55.767Z,33.87
2023-05-13T10:36:56.894Z,34.48
2023-05-13T10:37:56.317Z,34.17
2023-05-13T10:38:56.560Z,33.16
2023-05-13T10:39:56.812Z,33.86
2023-05-13T10:40:57.039Z,32.86
2023-05-13T10:41:58.659Z,33.36
2023-05-13T10:42:57.602Z,32.96
2023-05-13T10:43:57.830Z,33.36
2023-05-13T10:44:58.078Z,32.84
2023-05-13T10:45:58.386Z,33.44
2023-05-13T10:46:58.606Z,32.24
2023-05-13T10:47:58.988Z,31.85
2023-05-13T10:48:59.156Z,32.56
2023-05-13T10:50:00.084Z,32.74
2023-05-13T10:50:59.844Z,32.24
2023-05-13T10:52:00.162Z,32.24
2023-05-13T10:53:00.481Z,32.64
2023-05-13T10:54:00.826Z,32.64
2023-05-13T10:55:01.030Z,32.34
2023-05-13T10:56:01.335Z,33.04
2023-05-13T10:57:02.065Z,33.34
2023-05-13T10:58:02.214Z,32.94
2023-05-13T10:59:02.126Z,32.24
2023-05-13T11:00:02.377Z,32.34
2023-05-13T11:01:02.682Z,33.14
2023-05-13T11:02:03.005Z,33.14
2023-05-13T11:03:03.295Z,33.84
2023-05-13T11:04:03.738Z,34.24
2023-05-13T11:05:03.968Z,33.34
2023-05-13T11:06:04.324Z,34.24
2023-05-13T11:07:04.600Z,33.54
2023-05-13T11:08:04.871Z,32.94
2023-05-13T11:09:05.144Z,33.54
2023-05-13T11:10:05.396Z,33.76
2023-05-13T11:11:05.772Z,33.26
2023-05-13T11:12:05.941Z,33.76
2023-05-13T11:13:06.213Z,33.56
2023-05-13T11:14:08.211Z,33.26
2023-05-13T11:15:06.799Z,32.56
2023-05-13T11:16:07.149Z,32.65
2023-05-13T11:17:07.422Z,32.57
2023-05-13T11:18:07.735Z,32.97
2023-05-13T11:19:08.099Z,33.07
2023-05-13T11:20:08.146Z,32.57
2023-05-13T11:21:08.605Z,33.28
2023-05-13T11:22:08.668Z,33.17
2023-05-13T11:23:08.998Z,32.37
2023-05-13T11:24:09.264Z,32.67
2023-05-13T11:25:09.564Z,33.78
2023-05-13T11:26:12.051Z,33.67
2023-05-13T11:27:10.072Z,33.87
2023-05-13T11:28:10.401Z,33.98
2023-05-13T11:29:10.686Z,33.67
2023-05-13T11:30:11.046Z,34.56
2023-05-13T11:31:11.220Z,32.96
2023-05-13T11:32:11.494Z,33.16
2023-05-13T11:33:11.755Z,32.86
2023-05-13T11:34:12.036Z,32.24
2023-05-13T11:35:12.332Z,32.84
2023-05-13T11:36:12.656Z,32.34
2023-05-13T11:37:12.807Z,31.34
2023-05-13T11:38:13.107Z,31.14
2023-05-13T11:39:13.353Z,30.74
2023-05-13T11:40:13.630Z,31.14
2023-05-13T11:41:13.889Z,30.94
2023-05-13T11:42:14.241Z,31.44
2023-05-13T11:43:14.448Z,31.74
2023-05-13T11:44:14.712Z,32.64
2023-05-13T11:45:15.002Z,31.44
2023-05-13T11:46:15.295Z,31.73
2023-05-13T11:47:15.563Z,31.54
2023-05-13T11:48:15.884Z,31.24
2023-05-13T11:49:16.485Z,31.34
2023-05-13T11:50:16.455Z,31.64
2023-05-13T11:51:16.790Z,31.14
2023-05-13T11:52:17.126Z,32.04
2023-05-13T11:53:17.366Z,33.34
2023-05-13T11:54:17.658Z,31.64
2023-05-13T11:55:17.943Z,32.24
2023-05-13T11:56:18.247Z,32.44
2023-05-13T11:57:18.552Z,31.84
2023-05-13T11:58:18.842Z,32.34
2023-05-13T11:59:19.365Z,31.94
2023-05-13T12:00:19.390Z,31.54
2023-05-13T12:01:19.633Z,31.64
2023-05-13T12:02:20.144Z,31.44
2023-05-13T12:03:20.359Z,32.24
2023-05-13T12:04:20.486Z,32.24
2023-05-13T12:05:20.971Z,31.04
2023-05-13T12:06:21.110Z,31.44
2023-05-13T12:07:21.404Z,30.62
2023-05-13T12:08:23.776Z,30.73
2023-05-13T12:09:21.963Z,31.23
2023-05-13T12:10:22.216Z,31.61
2023-05-13T12:11:22.788Z,31.51
2023-05-13T12:12:23.218Z,32.71
2023-05-13T12:13:23.157Z,31.10
2023-05-13T12:14:23.334Z,31.59
2023-05-13T12:15:23.878Z,31.70
2023-05-13T12:16:27.338Z,31.10
2023-05-13T12:17:24.511Z,31.29
2023-05-13T12:18:24.629Z,31.71
2023-05-13T12:19:25.133Z,32.11
2023-05-13T12:20:25.578Z,31.81
2023-05-13T12:21:25.442Z,31.91
2023-05-13T12:22:25.592Z,31.82
2023-05-13T12:23:25.950Z,32.23
2023-05-13T12:24:26.153Z,31.52
2023-05-13T12:25:26.488Z,31.32
2023-05-13T12:26:26.906Z,31.73
2023-05-13T12:27:27.054Z,31.82
2023-05-13T12:28:27.390Z,31.93
2023-05-13T12:29:27.810Z,31.02
2023-05-13T12:30:28.094Z,31.71
2023-05-13T12:31:28.342Z,31.91
2023-05-13T12:32:28.562Z,32.01
2023-05-13T12:33:28.775Z,31.21
2023-05-13T12:34:28.889Z,30.40
2023-05-13T12:35:29.897Z,30.90
2023-05-13T12:36:29.457Z,31.40
2023-05-13T12:37:29.690Z,30.68
2023-05-13T12:38:30.028Z,30.38
2023-05-13T12:39:30.349Z,30.78
2023-05-13T12:40:30.529Z,31.38
2023-05-13T12:41:30.807Z,31.58
2023-05-13T12:42:31.126Z,31.08
2023-05-13T12:43:31.283Z,30.38
2023-05-13T12:44:31.592Z,30.78
2023-05-13T12:45:31.872Z,30.58
2023-05-13T12:46:32.169Z,30.79
2023-05-13T12:47:32.447Z,30.19
2023-05-13T12:48:32.686Z,30.48
2023-05-13T12:49:32.986Z,30.08
2023-05-13T12:50:33.274Z,29.90
2023-05-13T12:51:33.555Z,29.00
2023-05-13T12:52:33.784Z,29.69
2023-05-13T12:53:34.076Z,29.90
2023-05-13T12:54:34.364Z,29.99
2023-05-13T12:55:34.629Z,29.69
2023-05-13T12:56:34.882Z,29.39
2023-05-13T12:57:35.141Z,29.00
2023-05-13T12:58:35.445Z,29.51
2023-05-13T12:59:35.744Z,30.51
2023-05-13T13:00:36.001Z,31.11
2023-05-13T13:01:36.231Z,31.01
2023-05-13T13:02:36.593Z,29.41